Time;durP1;ratioP1;P1;durP2;ratioP2;P2;SDS_P1;SDS_P2;PMS_P1;PMS_P2;Temp;Humidity;BMP_temperature;BMP_pressure;BME280_temperature;BME280_humidity;BME280_pressure;Samples;Min_cycle;Max_cycle;Signal;HPM_P1;HPM_P2
2024/04/05 00:01:55;;;;;;;0.45;0.45;;;;;;;2.00;99.56;99226.31;5087799;28;20070;-61
2024/04/05 00:04:20;;;;;;;0.50;0.50;;;;;;;1.95;100.00;99231.41;5087949;28;20024;-61
2024/04/05 00:06:45;;;;;;;0.40;0.40;;;;;;;1.85;100.00;99230.47;5087668;28;20422;-64
2024/04/05 00:09:11;;;;;;;0.50;0.50;;;;;;;1.97;100.00;99224.59;5087624;28;20040;-62
2024/04/05 00:11:36;;;;;;;0.40;0.40;;;;;;;1.94;100.00;99214.34;5087901;28;20020;-62
2024/04/05 00:14:02;;;;;;;0.47;0.47;;;;;;;1.79;100.00;99188.63;5086202;28;20107;-62
2024/04/05 00:16:28;;;;;;;0.43;0.43;;;;;;;1.89;100.00;99192.09;5087730;28;20016;-61
2024/04/05 00:18:57;;;;;;;0.50;0.50;;;;;;;1.84;100.00;99198.03;5088251;28;20126;-62
2024/04/05 00:21:22;;;;;;;0.50;0.50;;;;;;;1.80;100.00;99205.69;5087801;28;20084;-62
2024/04/05 00:23:49;;;;;;;0.45;0.45;;;;;;;1.86;100.00;99203.16;5086068;28;20074;-62
2024/04/05 00:26:14;;;;;;;0.40;0.40;;;;;;;1.81;100.00;99209.94;5087696;28;20017;-62
2024/04/05 00:28:40;;;;;;;0.40;0.40;;;;;;;1.73;100.00;99199.66;5087727;28;20131;-62
2024/04/05 00:31:05;;;;;;;0.50;0.50;;;;;;;1.88;100.00;99201.50;5087410;28;20376;-62
2024/04/05 00:33:32;;;;;;;0.50;0.50;;;;;;;1.94;100.00;99200.66;5087579;28;20031;-63
2024/04/05 00:35:58;;;;;;;0.40;0.40;;;;;;;1.83;100.00;99205.72;5087452;28;20028;-63
2024/04/05 00:38:24;;;;;;;0.40;0.40;;;;;;;1.72;100.00;99214.16;5087339;28;20568;-63
2024/04/05 00:40:51;;;;;;;0.50;0.50;;;;;;;1.70;100.00;99205.63;5086196;28;20024;-62
2024/04/05 00:43:17;;;;;;;0.50;0.50;;;;;;;1.80;100.00;99198.88;5087101;28;20077;-63
2024/04/05 00:45:46;;;;;;;0.50;0.50;;;;;;;2.15;100.00;99182.03;5087178;28;20099;-61
2024/04/05 00:48:13;;;;;;;0.40;0.40;;;;;;;2.06;100.00;99179.44;5087195;28;20142;-61
2024/04/05 00:50:39;;;;;;;0.50;0.50;;;;;;;1.95;100.00;99187.88;5087112;28;20056;-62
2024/04/05 00:53:08;;;;;;;0.40;0.40;;;;;;;2.04;100.00;99188.78;5086698;28;20063;-62
2024/04/05 00:55:36;;;;;;;0.40;0.40;;;;;;;1.91;100.00;99198.94;5087155;28;20063;-63
2024/04/05 00:58:04;;;;;;;0.50;0.50;;;;;;;2.01;100.00;99209.25;5086995;28;20024;-62
2024/04/05 01:00:31;;;;;;;0.50;0.50;;;;;;;1.91;100.00;99209.19;5087184;28;20024;-63
2024/04/05 01:02:57;;;;;;;0.47;0.47;;;;;;;1.96;100.00;99201.53;5086630;28;20036;-63
2024/04/05 01:05:22;;;;;;;0.50;0.50;;;;;;;1.93;100.00;99197.25;5086844;28;20024;-63
2024/04/05 01:07:48;;;;;;;0.50;0.50;;;;;;;1.94;100.00;99209.22;5086507;28;20025;-62
2024/04/05 01:10:14;;;;;;;0.40;0.40;;;;;;;1.98;100.00;99208.38;5085354;28;20028;-62
2024/04/05 01:12:39;;;;;;;0.50;0.50;;;;;;;1.87;100.00;99210.00;5086974;28;20032;-62
2024/04/05 01:15:05;;;;;;;0.50;0.50;;;;;;;1.91;100.00;99213.44;5086706;28;20405;-62
2024/04/05 01:17:31;;;;;;;0.50;0.50;;;;;;;1.93;100.00;99211.75;5086623;28;20020;-62
2024/04/05 01:19:59;;;;;;;0.50;0.50;;;;;;;1.88;100.00;99209.16;5086169;28;20352;-62
2024/04/05 01:22:30;;;;;;;0.50;0.50;;;;;;;1.90;100.00;99201.50;5086274;28;20035;-62
2024/04/05 01:24:55;;;;;;;0.50;0.50;;;;;;;1.88;100.00;99218.53;5086694;28;20027;-62
2024/04/05 01:27:21;;;;;;;0.50;0.50;;;;;;;1.86;100.00;99210.84;5086270;28;20021;-62
2024/04/05 01:29:46;;;;;;;0.50;0.50;;;;;;;1.89;100.00;99225.38;5085152;28;20031;-63
2024/04/05 01:32:11;;;;;;;0.50;0.50;;;;;;;1.93;100.00;99216.88;5086275;28;20014;-61
2024/04/05 01:34:37;;;;;;;0.50;0.50;;;;;;;1.92;100.00;99220.25;5084924;28;20031;-63
2024/04/05 01:37:02;;;;;;;0.40;0.40;;;;;;;2.02;100.00;99222.06;5086181;28;20020;-65
2024/04/05 01:39:29;;;;;;;0.40;0.40;;;;;;;1.96;100.00;99222.88;5084698;28;20031;-63
2024/04/05 01:41:54;;;;;;;0.50;0.50;;;;;;;1.96;100.00;99220.34;5085811;28;20044;-63
2024/04/05 01:44:19;;;;;;;0.50;0.50;;;;;;;1.98;100.00;99226.28;5085001;28;20376;-62
2024/04/05 01:46:45;;;;;;;0.47;0.47;;;;;;;1.93;100.00;99217.72;5086004;28;20103;-63
2024/04/05 01:49:10;;;;;;;0.50;0.50;;;;;;;2.05;100.00;99221.22;5086016;28;20024;-62
2024/04/05 01:51:35;;;;;;;0.50;0.50;;;;;;;2.12;100.00;99223.00;5085751;28;20078;-63
2024/04/05 01:54:01;;;;;;;0.40;0.40;;;;;;;2.08;100.00;99222.09;5085480;28;20046;-63
2024/04/05 01:56:26;;;;;;;0.50;0.50;;;;;;;2.12;100.00;99228.13;5085823;28;20050;-63
2024/04/05 01:58:51;;;;;;;0.50;0.50;;;;;;;2.07;100.00;99229.78;5085448;28;20020;-63
2024/04/05 02:01:17;;;;;;;0.50;0.50;;;;;;;2.06;100.00;99222.97;5085625;28;20040;-63
2024/04/05 02:03:42;;;;;;;0.40;0.40;;;;;;;2.15;100.00;99217.91;5084182;28;20033;-62
2024/04/05 02:06:12;;;;;;;0.50;0.50;;;;;;;2.17;100.00;99215.34;5085529;28;20032;-62
2024/04/05 02:08:37;;;;;;;0.50;0.50;;;;;;;2.12;100.00;99220.44;5085343;28;20432;-63
2024/04/05 02:11:03;;;;;;;0.50;0.50;;;;;;;2.09;100.00;99215.28;5085629;28;20562;-62
2024/04/05 02:13:28;;;;;;;0.45;0.45;;;;;;;2.13;100.00;99211.91;5085445;28;20035;-63
2024/04/05 02:15:54;;;;;;;0.40;0.40;;;;;;;2.19;100.00;99206.81;5085330;28;20052;-63
2024/04/05 02:18:19;;;;;;;0.45;0.45;;;;;;;2.21;100.00;99202.56;5085469;28;20024;-63
2024/04/05 02:20:53;;;;;;;0.40;0.40;;;;;;;2.25;100.00;99205.16;5085434;28;20085;-63
2024/04/05 02:23:18;;;;;;;0.40;0.40;;;;;;;2.27;100.00;99195.78;5085259;28;20021;-63
2024/04/05 02:25:43;;;;;;;0.47;0.47;;;;;;;2.29;100.00;99204.31;5085193;28;20028;-62
2024/04/05 02:28:09;;;;;;;0.40;0.40;;;;;;;2.34;100.00;99212.88;5085335;28;20519;-63
2024/04/05 02:30:38;;;;;;;0.50;0.50;;;;;;;2.28;100.00;99212.84;5085415;28;20070;-65
2024/04/05 02:33:04;;;;;;;0.40;0.40;;;;;;;2.34;100.00;99223.13;5084151;28;20017;-62
2024/04/05 02:35:30;;;;;;;0.50;0.50;;;;;;;2.31;100.00;99223.97;5085396;28;20488;-63
2024/04/05 02:37:55;;;;;;;0.50;0.50;;;;;;;2.29;100.00;99217.09;5083712;28;20032;-62
2024/04/05 02:40:20;;;;;;;0.50;0.50;;;;;;;2.31;100.00;99221.41;5085290;28;20040;-63
2024/04/05 02:42:46;;;;;;;0.40;0.40;;;;;;;2.30;100.00;99226.53;5083900;28;20118;-64
2024/04/05 02:45:11;;;;;;;0.50;0.50;;;;;;;2.30;100.00;99214.56;5085052;28;20452;-63
2024/04/05 02:47:36;;;;;;;0.50;0.50;;;;;;;2.34;100.00;99216.31;5085119;28;20028;-65
2024/04/05 02:50:02;;;;;;;0.50;0.50;;;;;;;2.35;100.00;99217.16;5084885;28;20335;-64
2024/04/05 02:52:28;;;;;;;0.40;0.40;;;;;;;2.32;100.00;99210.31;5084704;28;20027;-63
2024/04/05 02:54:53;;;;;;;0.40;0.40;;;;;;;2.33;100.00;99213.75;5085133;28;20031;-64
2024/04/05 02:57:19;;;;;;;2.15;1.95;;;;;;;2.31;100.00;99212.88;5084901;28;20028;-63
2024/04/05 02:59:44;;;;;;;0.50;0.50;;;;;;;2.35;100.00;99218.00;5085019;28;20473;-63
2024/04/05 03:02:09;;;;;;;0.50;0.50;;;;;;;2.36;100.00;99213.75;5084790;28;20115;-62
2024/04/05 03:04:35;;;;;;;0.50;0.50;;;;;;;2.43;100.00;99224.91;5086112;28;20033;-63
2024/04/05 03:07:00;;;;;;;0.40;0.40;;;;;;;2.46;100.00;99218.06;5089064;28;20084;-62
2024/04/05 03:09:25;;;;;;;0.40;0.40;;;;;;;2.49;100.00;99219.81;5088664;28;20049;-63
2024/04/05 03:11:50;;;;;;;0.50;0.50;;;;;;;2.48;100.00;99221.50;5088990;28;20024;-63
2024/04/05 03:14:17;;;;;;;0.40;0.40;;;;;;;2.56;100.00;99225.81;5087574;28;20029;-63
2024/04/05 03:16:44;;;;;;;0.40;0.40;;;;;;;2.59;100.00;99229.25;5088777;28;20024;-63
2024/04/05 03:19:10;;;;;;;0.50;0.50;;;;;;;2.60;100.00;99227.56;5088812;28;20048;-63
2024/04/05 03:21:35;;;;;;;0.45;0.45;;;;;;;2.62;100.00;99223.25;5087145;28;20032;-63
2024/04/05 03:24:00;;;;;;;0.40;0.40;;;;;;;2.71;100.00;99235.28;5088434;28;20027;-62
2024/04/05 03:26:26;;;;;;;0.40;0.40;;;;;;;2.75;100.00;99236.16;5088153;28;20021;-64
2024/04/05 03:28:51;;;;;;;0.50;0.50;;;;;;;2.80;100.00;99227.63;5088641;28;20099;-63
2024/04/05 03:31:16;;;;;;;0.40;0.40;;;;;;;2.88;100.00;99232.78;5088354;28;20111;-63
2024/04/05 03:33:42;;;;;;;0.40;0.40;;;;;;;2.88;100.00;99232.78;5088606;28;20020;-63
2024/04/05 03:36:07;;;;;;;1.00;1.00;;;;;;;2.91;100.00;99224.25;5088428;28;20024;-62
2024/04/05 03:38:33;;;;;;;0.40;0.40;;;;;;;2.95;100.00;99229.41;5088230;28;20056;-64
2024/04/05 03:41:01;;;;;;;0.52;0.52;;;;;;;3.02;100.00;99227.72;5086925;28;20020;-62
2024/04/05 03:43:26;;;;;;;0.40;0.40;;;;;;;3.15;100.00;99238.88;5086787;28;20037;-62
2024/04/05 03:45:51;;;;;;;0.40;0.40;;;;;;;3.18;100.00;99233.75;5087965;28;20031;-63
2024/04/05 03:48:17;;;;;;;0.40;0.40;;;;;;;3.29;100.00;99245.75;5088146;28;20021;-63
2024/04/05 03:50:42;;;;;;;0.40;0.40;;;;;;;3.27;100.00;99234.63;5088100;28;20028;-63
2024/04/05 03:53:07;;;;;;;0.40;0.40;;;;;;;3.38;100.00;99245.78;5087896;28;20021;-62
2024/04/05 03:55:33;;;;;;;0.50;0.50;;;;;;;3.44;100.00;99244.91;5086734;28;20023;-63
2024/04/05 03:57:58;;;;;;;0.40;0.40;;;;;;;3.51;100.00;99246.66;5087975;28;20089;-63
2024/04/05 04:00:23;;;;;;;0.40;0.40;;;;;;;3.56;100.00;99246.66;5087904;28;20025;-62
2024/04/05 04:02:51;;;;;;;0.40;0.40;;;;;;;3.61;100.00;99250.06;5086480;28;20028;-62
2024/04/05 04:05:16;;;;;;;0.40;0.40;;;;;;;3.65;100.00;99253.50;5079402;28;20530;-63
2024/04/05 04:07:42;;;;;;;0.40;0.40;;;;;;;3.69;100.00;99248.38;5087638;28;20024;-62
2024/04/05 04:10:07;;;;;;;0.40;0.40;;;;;;;3.72;100.00;99239.84;5087796;28;20024;-62
2024/04/05 04:12:33;;;;;;;0.40;0.40;;;;;;;3.78;100.00;99241.56;5087604;28;20055;-62
2024/04/05 04:14:58;;;;;;;0.40;0.40;;;;;;;3.82;100.00;99243.25;5087391;28;20088;-63
2024/04/05 04:17:23;;;;;;;0.40;0.40;;;;;;;3.85;100.00;99240.69;5087874;28;20046;-63
2024/04/05 04:19:49;;;;;;;0.50;0.50;;;;;;;3.93;100.00;99248.41;5087494;28;20047;-63
2024/04/05 04:22:14;;;;;;;0.47;0.47;;;;;;;3.93;100.00;99244.13;5087648;28;20020;-64
2024/04/05 04:24:40;;;;;;;0.50;0.50;;;;;;;4.05;100.00;99252.69;5085964;28;20025;-64
2024/04/05 04:27:07;;;;;;;0.40;0.40;;;;;;;4.06;100.00;99254.38;5087683;28;20106;-63
2024/04/05 04:29:33;;;;;;;0.45;0.45;;;;;;;4.11;100.00;99255.25;5087477;28;20020;-63
2024/04/05 04:31:59;;;;;;;0.40;0.40;;;;;;;4.16;100.00;99260.38;5087133;28;20067;-64
2024/04/05 04:34:25;;;;;;;0.40;0.40;;;;;;;4.17;100.00;99260.38;5087214;28;20028;-63
2024/04/05 04:36:50;;;;;;;0.40;0.40;;;;;;;4.19;100.00;99253.53;5086032;28;20103;-63
2024/04/05 04:39:16;;;;;;;0.40;0.40;;;;;;;4.25;100.00;99254.38;5078682;28;20032;-63
2024/04/05 04:41:42;;;;;;;0.40;0.40;;;;;;;4.26;100.00;99267.22;5087235;28;20439;-62
2024/04/05 04:44:08;;;;;;;0.40;0.40;;;;;;;4.28;100.00;99260.34;5087143;28;20016;-62
2024/04/05 04:46:34;;;;;;;0.40;0.40;;;;;;;4.34;100.00;99269.78;5087027;28;20047;-62
2024/04/05 04:48:59;;;;;;;0.40;0.40;;;;;;;4.38;100.00;99270.66;5085688;28;20033;-62
2024/04/05 04:51:26;;;;;;;0.40;0.40;;;;;;;4.38;100.00;99265.50;5085629;28;20024;-62
2024/04/05 04:53:54;;;;;;;0.40;0.40;;;;;;;4.37;100.00;99266.34;5085395;28;20020;-63
2024/04/05 04:56:19;;;;;;;0.40;0.40;;;;;;;4.42;100.00;99283.50;5086991;28;20059;-62
2024/04/05 04:58:44;;;;;;;0.40;0.40;;;;;;;4.44;100.00;99286.06;5086904;28;20021;-63
2024/04/05 05:01:10;;;;;;;0.40;0.40;;;;;;;4.45;100.00;99283.50;5085325;28;20081;-64
2024/04/05 05:03:35;;;;;;;0.45;0.45;;;;;;;4.46;100.00;99281.75;5086784;28;20028;-62
2024/04/05 05:06:01;;;;;;;0.40;0.40;;;;;;;4.43;100.00;99271.47;5086385;28;20020;-62
2024/04/05 05:08:28;;;;;;;0.40;0.40;;;;;;;4.50;100.00;99275.78;5086646;28;20041;-62
2024/04/05 05:10:53;;;;;;;0.43;0.43;;;;;;;4.53;100.00;99282.59;5086676;28;20044;-63
2024/04/05 05:13:19;;;;;;;0.40;0.40;;;;;;;4.56;100.00;99277.47;5086408;28;20035;-62
2024/04/05 05:15:44;;;;;;;0.40;0.40;;;;;;;4.57;100.00;99280.03;5086676;28;20020;-64
2024/04/05 05:18:11;;;;;;;0.50;0.50;;;;;;;4.60;100.00;99279.16;5086498;28;20021;-64
2024/04/05 05:20:43;;;;;;;0.40;0.40;;;;;;;4.62;100.00;99284.31;5086493;28;20420;-63
2024/04/05 05:23:09;;;;;;;0.40;0.40;;;;;;;4.68;100.00;99289.44;5084987;28;20032;-64
2024/04/05 05:25:34;;;;;;;0.40;0.40;;;;;;;4.59;100.00;99280.03;5086375;28;20070;-64
2024/04/05 05:27:59;;;;;;;0.40;0.40;;;;;;;4.69;100.00;99294.59;5085767;28;20032;-64
2024/04/05 05:30:25;;;;;;;0.50;0.50;;;;;;;4.70;100.00;99292.84;5086275;28;20020;-63
2024/04/05 05:32:51;;;;;;;0.40;0.40;;;;;;;4.73;100.00;99287.69;5084977;28;20044;-64
2024/04/05 05:35:16;;;;;;;0.40;0.40;;;;;;;4.71;100.00;99290.28;5077852;28;20062;-65
2024/04/05 05:37:42;;;;;;;0.38;0.38;;;;;;;4.77;100.00;99288.56;5085850;28;20031;-64
2024/04/05 05:40:07;;;;;;;0.40;0.40;;;;;;;4.79;100.00;99289.41;5086055;28;20024;-64
2024/04/05 05:42:33;;;;;;;0.40;0.40;;;;;;;4.82;100.00;99299.69;5085896;28;20028;-63
2024/04/05 05:44:58;;;;;;;0.50;0.50;;;;;;;4.86;100.00;99292.84;5085843;28;20096;-65
2024/04/05 05:47:24;;;;;;;0.40;0.40;;;;;;;4.86;100.00;99292.84;5086022;28;20029;-64
2024/04/05 05:49:49;;;;;;;0.40;0.40;;;;;;;4.87;100.00;99297.97;5083369;28;20042;-64
2024/04/05 05:52:15;;;;;;;0.40;0.40;;;;;;;4.91;100.00;99291.06;5085729;28;20109;-63
2024/04/05 05:54:41;;;;;;;0.40;0.40;;;;;;;4.93;100.00;99295.38;5085021;28;20031;-64
2024/04/05 05:57:06;;;;;;;0.40;0.40;;;;;;;4.98;100.00;99297.94;5083674;28;20080;-65
2024/04/05 05:59:31;;;;;;;0.38;0.38;;;;;;;5.00;100.00;99305.66;5085307;28;20028;-65
2024/04/05 06:01:57;;;;;;;0.40;0.40;;;;;;;5.02;100.00;99304.75;5085349;28;20059;-65
2024/04/05 06:04:22;;;;;;;0.40;0.40;;;;;;;5.02;100.00;99311.63;5085873;28;20024;-65
2024/04/05 06:06:49;;;;;;;0.40;0.40;;;;;;;4.99;100.00;99306.47;5085515;28;20016;-65
2024/04/05 06:09:14;;;;;;;0.40;0.40;;;;;;;5.00;100.00;99311.63;5085191;28;20094;-64
2024/04/05 06:11:40;;;;;;;0.40;0.40;;;;;;;5.01;100.00;99309.91;5085545;28;20020;-64
2024/04/05 06:14:06;;;;;;;0.40;0.40;;;;;;;5.06;100.00;99315.91;5085461;28;20021;-64
2024/04/05 06:16:32;;;;;;;0.40;0.40;;;;;;;5.08;100.00;99319.31;5085309;28;20384;-64
2024/04/05 06:18:57;;;;;;;0.40;0.40;;;;;;;5.08;100.00;99322.75;5085399;28;20028;-65
2024/04/05 06:21:22;;;;;;;0.40;0.40;;;;;;;5.11;100.00;99321.91;5085371;28;20025;-64
2024/04/05 06:23:48;;;;;;;0.40;0.40;;;;;;;5.16;100.00;99321.88;5083848;28;20032;-65
2024/04/05 06:26:13;;;;;;;0.40;0.40;;;;;;;5.16;100.00;99327.88;5085330;28;20028;-64
2024/04/05 06:28:39;;;;;;;0.40;0.40;;;;;;;5.13;100.00;99325.31;5085410;28;20055;-64
2024/04/05 06:31:04;;;;;;;0.40;0.40;;;;;;;5.17;100.00;99333.88;5084946;28;20024;-63
2024/04/05 06:33:30;;;;;;;0.40;0.40;;;;;;;5.13;100.00;99338.16;5083888;28;20073;-64
2024/04/05 06:35:59;;;;;;;0.40;0.40;;;;;;;5.16;100.00;99342.47;5084965;28;20033;-64
2024/04/05 06:38:28;;;;;;;0.40;0.40;;;;;;;5.17;100.00;99349.31;5084101;28;20103;-64
2024/04/05 06:40:57;;;;;;;0.40;0.40;;;;;;;5.22;100.00;99347.59;5084729;28;20103;-63
2024/04/05 06:43:25;;;;;;;0.40;0.40;;;;;;;5.38;100.00;99345.81;5084532;28;20043;-64
2024/04/05 06:45:57;;;;;;;0.40;0.40;;;;;;;5.58;100.00;99355.16;5084974;28;20028;-63
2024/04/05 06:48:23;;;;;;;0.40;0.40;;;;;;;5.80;100.00;99360.19;5085034;28;20025;-64
2024/04/05 06:50:49;;;;;;;0.40;0.40;;;;;;;5.93;100.00;99358.38;5084836;28;20055;-65
2024/04/05 06:53:15;;;;;;;0.40;0.40;;;;;;;5.99;100.00;99366.06;5084722;28;20115;-64
2024/04/05 06:55:47;;;;;;;0.40;0.40;;;;;;;5.98;100.00;99369.53;5085066;28;20032;-66
2024/04/05 06:58:13;;;;;;;0.40;0.40;;;;;;;5.92;100.00;99383.31;5084734;28;20023;-64
2024/04/05 07:00:39;;;;;;;0.40;0.40;;;;;;;5.79;100.00;99385.09;5083358;28;20241;-64
2024/04/05 07:03:05;;;;;;;0.40;0.40;;;;;;;5.68;100.00;99390.31;5084606;28;20446;-64
2024/04/05 07:05:31;;;;;;;0.40;0.40;;;;;;;5.56;100.00;99390.34;5084588;28;20057;-64
2024/04/05 07:07:56;;;;;;;0.40;0.40;;;;;;;5.47;100.00;99388.66;5084308;28;20428;-64
2024/04/05 07:10:22;;;;;;;0.40;0.40;;;;;;;5.38;100.00;99394.72;5084820;28;20020;-64
2024/04/05 07:12:51;;;;;;;0.40;0.40;;;;;;;5.31;100.00;99393.00;5083330;28;20110;-64
2024/04/05 07:15:16;;;;;;;0.45;0.45;;;;;;;5.26;100.00;99397.31;5084760;28;20027;-65
2024/04/05 07:17:41;;;;;;;0.40;0.40;;;;;;;5.12;100.00;99411.09;5084753;28;20032;-64
2024/04/05 07:20:11;;;;;;;0.40;0.40;;;;;;;5.08;100.00;99406.78;5084346;28;20028;-64
2024/04/05 07:22:36;;;;;;;0.40;0.40;;;;;;;5.00;100.00;99413.69;5084248;28;20023;-63
2024/04/05 07:25:06;;;;;;;0.40;0.40;;;;;;;5.02;100.00;99417.09;5084481;28;20056;-66
2024/04/05 07:27:31;;;;;;;0.43;0.43;;;;;;;4.96;100.00;99412.81;5084472;28;20017;-64
2024/04/05 07:29:57;;;;;;;0.40;0.40;;;;;;;4.91;100.00;99415.41;5083042;28;20033;-64
2024/04/05 07:32:22;;;;;;;0.40;0.40;;;;;;;4.96;100.00;99428.25;5084613;28;20021;-64
2024/04/05 07:34:47;;;;;;;0.40;0.40;;;;;;;4.93;100.00;99418.84;5084634;28;20133;-65
2024/04/05 07:37:13;;;;;;;0.40;0.40;;;;;;;4.98;100.00;99435.97;5083119;28;20020;-65
2024/04/05 07:39:39;;;;;;;0.40;0.40;;;;;;;5.00;100.00;99431.69;5084535;28;20111;-64
2024/04/05 07:42:04;;;;;;;0.40;0.40;;;;;;;5.05;100.00;99428.25;5084587;28;20020;-64
2024/04/05 07:44:30;;;;;;;0.40;0.40;;;;;;;5.10;100.00;99433.38;5084428;28;20024;-65
2024/04/05 07:46:55;;;;;;;0.40;0.40;;;;;;;5.13;100.00;99437.69;5084369;28;20044;-65
2024/04/05 07:49:21;;;;;;;0.40;0.40;;;;;;;5.01;100.00;99417.97;5083179;28;20020;-64
2024/04/05 07:51:46;;;;;;;0.40;0.40;;;;;;;5.15;100.00;99438.50;5087238;28;20020;-65
2024/04/05 07:54:12;;;;;;;0.40;0.40;;;;;;;5.20;100.00;99435.09;5087816;28;20453;-65
2024/04/05 07:56:37;;;;;;;0.40;0.40;;;;;;;5.20;100.00;99441.94;5088050;28;20020;-65
2024/04/05 07:59:03;;;;;;;0.40;0.40;;;;;;;5.17;100.00;99437.66;5088114;28;20035;-66
2024/04/05 08:01:28;;;;;;;0.40;0.40;;;;;;;5.20;100.00;99447.97;5087824;28;20020;-65
2024/04/05 08:03:53;;;;;;;0.40;0.40;;;;;;;5.23;100.00;99452.22;5087912;28;20025;-65
2024/04/05 08:06:19;;;;;;;0.40;0.40;;;;;;;5.27;100.00;99456.50;5087421;28;20488;-64
2024/04/05 08:08:45;;;;;;;0.30;0.30;;;;;;;5.25;100.00;99453.09;5085911;28;20068;-66
2024/04/05 08:11:10;;;;;;;0.40;0.40;;;;;;;5.20;100.00;99450.53;5087715;28;20032;-66
2024/04/05 08:13:36;;;;;;;0.40;0.40;;;;;;;5.22;100.00;99440.22;5087507;28;20084;-65
2024/04/05 08:16:05;;;;;;;0.40;0.40;;;;;;;5.26;100.00;99451.34;5087690;28;20028;-66
2024/04/05 08:18:30;;;;;;;0.40;0.40;;;;;;;5.31;100.00;99449.63;5087514;28;20093;-66
2024/04/05 08:20:55;;;;;;;0.40;0.40;;;;;;;5.39;100.00;99442.75;5087357;28;20084;-66
2024/04/05 08:23:21;;;;;;;0.40;0.40;;;;;;;5.50;100.00;99449.56;5087303;28;20021;-66
2024/04/05 08:25:46;;;;;;;0.30;0.30;;;;;;;5.58;100.00;99448.72;5086072;28;20485;-66
2024/04/05 08:28:12;;;;;;;0.40;0.40;;;;;;;5.58;100.00;99455.56;5087345;28;20024;-65
2024/04/05 08:30:37;;;;;;;0.40;0.40;;;;;;;5.66;100.00;99458.97;5087485;28;20025;-65
2024/04/05 08:33:04;;;;;;;0.40;0.40;;;;;;;5.70;100.00;99460.66;5087285;28;20043;-65
2024/04/05 08:35:29;;;;;;;0.40;0.40;;;;;;;5.74;100.00;99455.50;5087146;28;20021;-65
2024/04/05 08:38:05;;;;;;;0.38;0.38;;;;;;;5.78;100.00;99459.81;5086964;28;20036;-64
2024/04/05 08:40:32;;;;;;;0.40;0.40;;;;;;;5.86;100.00;99464.91;5087272;28;20050;-65
2024/04/05 08:43:00;;;;;;;0.35;0.35;;;;;;;5.91;100.00;99466.59;5087058;28;20020;-66
2024/04/05 08:45:30;;;;;;;0.40;0.40;;;;;;;5.98;100.00;99461.41;5087191;28;20082;-66
2024/04/05 08:48:02;;;;;;;0.40;0.40;;;;;;;6.10;100.00;99466.56;5087089;28;20077;-64
2024/04/05 08:50:28;;;;;;;0.50;0.50;;;;;;;6.23;100.00;99476.81;5086966;28;20035;-65
2024/04/05 08:52:54;;;;;;;0.40;0.40;;;;;;;6.40;100.00;99479.28;5086567;28;20025;-65
2024/04/05 08:55:20;;;;;;;0.30;0.30;;;;;;;6.44;100.00;99492.13;5087668;28;20062;-65
2024/04/05 08:57:46;;;;;;;0.40;0.40;;;;;;;6.45;100.00;99498.16;5086817;28;20412;-64
2024/04/05 09:00:17;;;;;;;0.40;0.40;;;;;;;6.36;100.00;99487.91;5086946;28;20035;-65
2024/04/05 09:02:43;;;;;;;0.40;0.40;;;;;;;6.49;100.00;99514.44;5085839;28;20025;-63
2024/04/05 09:05:09;;;;;;;0.40;0.40;;;;;;;6.41;100.00;99523.09;5086852;28;20039;-64
2024/04/05 09:07:35;;;;;;;0.40;0.40;;;;;;;6.26;100.00;99500.81;5086353;28;20060;-65
2024/04/05 09:10:16;;;;;;;0.40;0.40;;;;;;;6.40;100.00;99521.41;5086469;28;20021;-64
2024/04/05 09:12:52;;;;;;;0.40;0.40;;;;;;;6.43;100.00;99528.25;5085169;28;20086;-64
2024/04/05 09:15:19;;;;;;;0.40;0.40;;;;;;;6.43;100.00;99526.53;5086373;28;20094;-65
2024/04/05 09:17:46;;;;;;;0.40;0.40;;;;;;;6.50;100.00;99523.91;5086567;28;20059;-64
2024/04/05 09:20:16;;;;;;;0.40;0.40;;;;;;;6.75;100.00;99526.31;5086412;28;20071;-64
2024/04/05 09:22:43;;;;;;;0.40;0.40;;;;;;;6.80;100.00;99525.44;5084932;28;20028;-64
2024/04/05 09:25:09;;;;;;;0.40;0.40;;;;;;;6.90;100.00;99536.53;5085939;28;20029;-64
2024/04/05 09:27:34;;;;;;;0.40;0.40;;;;;;;6.98;100.00;99551.94;5086295;28;20077;-63
2024/04/05 09:30:04;;;;;;;0.40;0.40;;;;;;;6.91;100.00;99542.56;5084483;28;20031;-63
2024/04/05 09:32:30;;;;;;;0.40;0.40;;;;;;;6.84;100.00;99548.63;5084619;28;20020;-63
2024/04/05 09:34:59;;;;;;;0.40;0.40;;;;;;;6.76;100.00;99543.50;5085960;28;20445;-64
2024/04/05 09:37:27;;;;;;;0.40;0.40;;;;;;;6.65;100.00;99549.59;5085961;28;20290;-65
2024/04/05 09:39:53;;;;;;;0.30;0.30;;;;;;;6.50;100.00;99547.97;5085761;28;20074;-64
2024/04/05 09:42:22;;;;;;;0.30;0.30;;;;;;;6.42;100.00;99535.09;5084296;28;20020;-64
2024/04/05 09:44:50;;;;;;;0.40;0.40;;;;;;;6.49;100.00;99555.69;5085675;28;20036;-64
2024/04/05 09:47:19;;;;;;;0.30;0.30;;;;;;;6.47;100.00;99549.72;5085693;28;20059;-65
2024/04/05 09:49:45;;;;;;;0.40;0.40;;;;;;;6.38;100.00;99554.06;5085749;28;20021;-63
2024/04/05 09:52:14;;;;;;;0.40;0.40;;;;;;;6.38;100.00;99568.66;5085653;28;20028;-64
2024/04/05 09:54:40;;;;;;;0.40;0.40;;;;;;;6.35;100.00;99559.22;5085461;28;20427;-63
2024/04/05 09:57:13;;;;;;;0.30;0.30;;;;;;;6.26;100.00;99561.84;5085602;28;20077;-64
2024/04/05 09:59:42;;;;;;;0.40;0.40;;;;;;;6.12;100.00;99549.84;5085642;28;20024;-65
2024/04/05 10:02:09;;;;;;;0.40;0.40;;;;;;;6.13;100.00;99569.63;5085393;28;20056;-64
2024/04/05 10:04:36;;;;;;;0.40;0.40;;;;;;;6.03;100.00;99570.47;5085442;28;20103;-64
2024/04/05 10:07:06;;;;;;;0.35;0.35;;;;;;;5.97;100.00;99575.66;5084227;28;20025;-65
2024/04/05 10:09:35;;;;;;;0.30;0.30;;;;;;;6.05;100.00;99581.69;5085178;28;20086;-64
2024/04/05 10:12:13;;;;;;;0.40;0.40;;;;;;;6.16;100.00;99589.38;5085494;28;20020;-63
2024/04/05 10:14:39;;;;;;;0.40;0.40;;;;;;;6.20;100.00;99585.91;5085272;28;20465;-65
2024/04/05 10:17:09;;;;;;;0.40;0.40;;;;;;;6.24;100.00;99586.75;5085557;28;20028;-66
2024/04/05 10:19:38;;;;;;;0.40;0.40;;;;;;;6.31;100.00;99576.41;5085538;28;20084;-65
2024/04/05 10:22:18;;;;;;;0.40;0.40;;;;;;;6.27;100.00;99579.00;5085162;28;20028;-64
2024/04/05 10:24:44;;;;;;;0.40;0.40;;;;;;;6.23;100.00;99592.78;5083649;28;20103;-64
2024/04/05 10:27:24;;;;;;;0.40;0.40;;;;;;;6.15;100.00;99598.81;5085235;28;20107;-64
2024/04/05 10:30:00;;;;;;;0.40;0.40;;;;;;;5.91;100.00;99571.38;5084514;28;20310;-64
2024/04/05 10:32:26;;;;;;;0.40;0.40;;;;;;;5.99;100.00;99587.66;5085314;28;20027;-64
2024/04/05 10:34:52;;;;;;;0.40;0.40;;;;;;;6.04;100.00;99591.13;5083951;28;20025;-63
2024/04/05 10:37:17;;;;;;;0.30;0.30;;;;;;;6.04;100.00;99588.53;5085081;28;20032;-64
2024/04/05 10:39:43;;;;;;;0.40;0.40;;;;;;;6.15;100.00;99583.34;5085123;28;20016;-64
2024/04/05 10:42:08;;;;;;;0.40;0.40;;;;;;;6.24;100.00;99581.59;5085107;28;20102;-64
2024/04/05 10:44:34;;;;;;;0.40;0.40;;;;;;;6.41;100.00;99587.56;5084974;28;20025;-64
2024/04/05 10:47:00;;;;;;;0.38;0.38;;;;;;;6.47;100.00;99586.66;5084972;28;20032;-65
2024/04/05 10:49:25;;;;;;;0.30;0.30;;;;;;;6.43;100.00;99603.00;5084986;28;20102;-65
2024/04/05 10:51:57;;;;;;;0.30;0.30;;;;;;;6.40;100.00;99603.91;5084948;28;20028;-64
2024/04/05 10:54:23;;;;;;;;;;;;;;;6.41;100.00;99618.50;5085161;28;20054;-64
2024/04/05 10:56:48;;;;;;;0.30;0.30;;;;;;;6.44;100.00;99625.34;5083471;28;19971;-65
2024/04/05 10:59:17;;;;;;;0.40;0.40;;;;;;;6.59;100.00;99627.00;5084286;28;20017;-66
2024/04/05 11:01:43;;;;;;;0.40;0.40;;;;;;;6.62;100.00;99611.53;5084906;28;20090;-64
2024/04/05 11:04:10;;;;;;;0.40;0.40;;;;;;;6.70;100.00;99621.81;5084726;28;20129;-64
2024/04/05 11:06:36;;;;;;;0.40;0.40;;;;;;;6.65;100.00;99619.25;5084858;28;20029;-64
2024/04/05 11:09:01;;;;;;;0.40;0.40;;;;;;;6.65;100.00;99618.38;5084442;28;20527;-64
2024/04/05 11:11:27;;;;;;;0.40;0.40;;;;;;;6.59;100.00;99621.84;5084808;28;20024;-65
2024/04/05 11:14:03;;;;;;;0.40;0.40;;;;;;;6.58;100.00;99630.47;5084503;28;20017;-64
2024/04/05 11:16:33;;;;;;;0.40;0.40;;;;;;;6.52;100.00;99617.56;5084846;28;20029;-66
2024/04/05 11:18:59;;;;;;;0.40;0.40;;;;;;;6.64;100.00;99633.03;5084882;28;20050;-64
2024/04/05 11:21:26;;;;;;;0.38;0.38;;;;;;;6.65;100.00;99634.72;5083266;28;20025;-63
2024/04/05 11:23:54;;;;;;;0.40;0.40;;;;;;;6.59;100.00;99619.28;5083029;28;20017;-65
2024/04/05 11:26:31;;;;;;;0.40;0.40;;;;;;;6.66;100.00;99628.69;5085950;28;20032;-64
2024/04/05 11:29:00;;;;;;;0.40;0.40;;;;;;;6.61;100.00;99629.59;5088930;28;20447;-64
2024/04/05 11:31:27;;;;;;;0.40;0.40;;;;;;;6.53;100.00;99624.47;5088574;28;20016;-64